sensor_id;sensor_type;location;lat;lon;timestamp;temperature;humidity
20777;DHT22;10548;47.504;8.248;2023-09-12T00:02:15;18.50;99.90
20777;DHT22;10548;47.504;8.248;2023-09-12T00:04:42;18.50;99.90
20777;DHT22;10548;47.504;8.248;2023-09-12T00:07:09;18.50;99.90
20777;DHT22;10548;47.504;8.248;2023-09-12T00:09:37;18.70;99.90
20777;DHT22;10548;47.504;8.248;2023-09-12T00:12:04;18.70;99.90
20777;DHT22;10548;47.504;8.248;2023-09-12T00:14:31;18.60;99.90
20777;DHT22;10548;47.504;8.248;2023-09-12T00:16:59;18.40;99.90
20777;DHT22;10548;47.504;8.248;2023-09-12T00:19:26;18.40;99.90
20777;DHT22;10548;47.504;8.248;2023-09-12T00:21:53;18.30;99.90
20777;DHT22;10548;47.504;8.248;2023-09-12T00:24:20;18.40;99.90
20777;DHT22;10548;47.504;8.248;2023-09-12T00:26:47;18.40;99.90
20777;DHT22;10548;47.504;8.248;2023-09-12T00:29:14;18.30;99.90
20777;DHT22;10548;47.504;8.248;2023-09-12T00:31:43;18.20;99.90
20777;DHT22;10548;47.504;8.248;2023-09-12T00:34:10;18.20;99.90
20777;DHT22;10548;47.504;8.248;2023-09-12T00:36:37;18.10;99.90
20777;DHT22;10548;47.504;8.248;2023-09-12T00:39:05;18.10;99.90
20777;DHT22;10548;47.504;8.248;2023-09-12T00:41:32;18.10;99.90
20777;DHT22;10548;47.504;8.248;2023-09-12T00:43:59;18.00;99.90
20777;DHT22;10548;47.504;8.248;2023-09-12T00:46:27;18.00;99.90
20777;DHT22;10548;47.504;8.248;2023-09-12T00:48:57;18.10;99.90
20777;DHT22;10548;47.504;8.248;2023-09-12T00:51:25;18.00;99.90
20777;DHT22;10548;47.504;8.248;2023-09-12T00:53:53;18.00;99.90
20777;DHT22;10548;47.504;8.248;2023-09-12T00:56:21;17.90;99.90
20777;DHT22;10548;47.504;8.248;2023-09-12T00:58:48;17.80;99.90
20777;DHT22;10548;47.504;8.248;2023-09-12T01:01:19;17.90;99.90
20777;DHT22;10548;47.504;8.248;2023-09-12T01:03:48;18.00;99.90
20777;DHT22;10548;47.504;8.248;2023-09-12T01:06:19;17.90;99.90
20777;DHT22;10548;47.504;8.248;2023-09-12T01:08:47;17.80;99.90
20777;DHT22;10548;47.504;8.248;2023-09-12T01:11:14;17.80;99.90
20777;DHT22;10548;47.504;8.248;2023-09-12T01:13:42;17.70;99.90
20777;DHT22;10548;47.504;8.248;2023-09-12T01:16:09;17.80;99.90
20777;DHT22;10548;47.504;8.248;2023-09-12T01:18:37;17.90;99.90
20777;DHT22;10548;47.504;8.248;2023-09-12T01:25:19;17.90;99.90
20777;DHT22;10548;47.504;8.248;2023-09-12T01:27:25;18.00;99.90
20777;DHT22;10548;47.504;8.248;2023-09-12T01:29:57;17.80;99.90
20777;DHT22;10548;47.504;8.248;2023-09-12T01:32:24;17.80;99.90
20777;DHT22;10548;47.504;8.248;2023-09-12T01:34:51;17.70;99.90
20777;DHT22;10548;47.504;8.248;2023-09-12T01:37:19;17.50;99.90
20777;DHT22;10548;47.504;8.248;2023-09-12T01:39:46;17.50;99.90
20777;DHT22;10548;47.504;8.248;2023-09-12T01:42:15;17.70;99.90
20777;DHT22;10548;47.504;8.248;2023-09-12T01:44:45;17.70;99.90
20777;DHT22;10548;47.504;8.248;2023-09-12T01:47:13;17.70;99.90
20777;DHT22;10548;47.504;8.248;2023-09-12T01:49:45;17.70;99.90
20777;DHT22;10548;47.504;8.248;2023-09-12T01:52:14;17.80;99.90
20777;DHT22;10548;47.504;8.248;2023-09-12T01:54:42;17.80;99.90
20777;DHT22;10548;47.504;8.248;2023-09-12T01:57:11;17.50;99.90
20777;DHT22;10548;47.504;8.248;2023-09-12T01:59:39;17.40;99.90
20777;DHT22;10548;47.504;8.248;2023-09-12T02:02:07;17.40;99.90
20777;DHT22;10548;47.504;8.248;2023-09-12T02:04:34;17.40;99.90
20777;DHT22;10548;47.504;8.248;2023-09-12T02:07:01;17.50;99.90
20777;DHT22;10548;47.504;8.248;2023-09-12T02:09:28;17.60;99.90
20777;DHT22;10548;47.504;8.248;2023-09-12T02:11:55;17.70;99.90
20777;DHT22;10548;47.504;8.248;2023-09-12T02:14:23;17.60;99.90
20777;DHT22;10548;47.504;8.248;2023-09-12T02:16:50;17.70;99.90
20777;DHT22;10548;47.504;8.248;2023-09-12T02:19:20;17.70;99.90
20777;DHT22;10548;47.504;8.248;2023-09-12T02:21:47;17.60;99.90
20777;DHT22;10548;47.504;8.248;2023-09-12T02:24:14;17.50;99.90
20777;DHT22;10548;47.504;8.248;2023-09-12T02:26:43;17.50;99.90
20777;DHT22;10548;47.504;8.248;2023-09-12T02:29:11;17.40;99.90
20777;DHT22;10548;47.504;8.248;2023-09-12T02:31:38;17.30;99.90
20777;DHT22;10548;47.504;8.248;2023-09-12T02:34:05;17.40;99.90
20777;DHT22;10548;47.504;8.248;2023-09-12T02:36:33;17.40;99.90
20777;DHT22;10548;47.504;8.248;2023-09-12T02:39:00;17.30;99.90
20777;DHT22;10548;47.504;8.248;2023-09-12T02:41:27;17.30;99.90
20777;DHT22;10548;47.504;8.248;2023-09-12T02:43:55;17.20;99.90
20777;DHT22;10548;47.504;8.248;2023-09-12T02:46:22;17.30;99.90
20777;DHT22;10548;47.504;8.248;2023-09-12T02:48:49;17.30;99.90
20777;DHT22;10548;47.504;8.248;2023-09-12T02:51:16;17.30;99.90
20777;DHT22;10548;47.504;8.248;2023-09-12T02:53:43;17.30;99.90
20777;DHT22;10548;47.504;8.248;2023-09-12T02:56:10;17.40;99.90
20777;DHT22;10548;47.504;8.248;2023-09-12T02:58:37;17.40;99.90
20777;DHT22;10548;47.504;8.248;2023-09-12T03:01:04;17.40;99.90
20777;DHT22;10548;47.504;8.248;2023-09-12T03:03:33;17.40;99.90
20777;DHT22;10548;47.504;8.248;2023-09-12T03:06:01;17.40;99.90
20777;DHT22;10548;47.504;8.248;2023-09-12T03:08:31;17.40;99.90
20777;DHT22;10548;47.504;8.248;2023-09-12T03:10:59;17.40;99.90
20777;DHT22;10548;47.504;8.248;2023-09-12T03:13:29;17.30;99.90
20777;DHT22;10548;47.504;8.248;2023-09-12T03:15:56;17.30;99.90
20777;DHT22;10548;47.504;8.248;2023-09-12T03:18:23;17.20;99.90
20777;DHT22;10548;47.504;8.248;2023-09-12T03:20:50;17.10;99.90
20777;DHT22;10548;47.504;8.248;2023-09-12T03:23:18;17.10;99.90
20777;DHT22;10548;47.504;8.248;2023-09-12T03:25:46;17.10;99.90
20777;DHT22;10548;47.504;8.248;2023-09-12T03:28:14;17.10;99.90
20777;DHT22;10548;47.504;8.248;2023-09-12T03:30:41;17.10;99.90
20777;DHT22;10548;47.504;8.248;2023-09-12T03:33:09;17.10;99.90
20777;DHT22;10548;47.504;8.248;2023-09-12T03:35:36;16.90;99.90
20777;DHT22;10548;47.504;8.248;2023-09-12T03:38:04;17.00;99.90
20777;DHT22;10548;47.504;8.248;2023-09-12T03:40:31;17.00;99.90
20777;DHT22;10548;47.504;8.248;2023-09-12T03:42:59;17.00;99.90
20777;DHT22;10548;47.504;8.248;2023-09-12T03:45:26;16.90;99.90
20777;DHT22;10548;47.504;8.248;2023-09-12T03:47:53;16.90;99.90
20777;DHT22;10548;47.504;8.248;2023-09-12T03:50:20;16.80;99.90
20777;DHT22;10548;47.504;8.248;2023-09-12T03:52:48;16.80;99.90
20777;DHT22;10548;47.504;8.248;2023-09-12T03:55:16;16.90;99.90
20777;DHT22;10548;47.504;8.248;2023-09-12T03:57:43;16.90;99.90
20777;DHT22;10548;47.504;8.248;2023-09-12T04:00:11;16.90;99.90
20777;DHT22;10548;47.504;8.248;2023-09-12T04:02:39;16.90;99.90
20777;DHT22;10548;47.504;8.248;2023-09-12T04:05:07;16.90;99.90
20777;DHT22;10548;47.504;8.248;2023-09-12T04:07:34;16.90;99.90
20777;DHT22;10548;47.504;8.248;2023-09-12T04:10:01;16.90;99.90
20777;DHT22;10548;47.504;8.248;2023-09-12T04:12:29;16.80;99.90
20777;DHT22;10548;47.504;8.248;2023-09-12T04:14:56;16.90;99.90
20777;DHT22;10548;47.504;8.248;2023-09-12T04:17:23;16.80;99.90
20777;DHT22;10548;47.504;8.248;2023-09-12T04:19:50;16.80;99.90
20777;DHT22;10548;47.504;8.248;2023-09-12T04:22:18;16.80;99.90
20777;DHT22;10548;47.504;8.248;2023-09-12T04:24:49;16.70;99.90
20777;DHT22;10548;47.504;8.248;2023-09-12T04:27:16;16.70;99.90
20777;DHT22;10548;47.504;8.248;2023-09-12T04:29:44;16.80;99.90
20777;DHT22;10548;47.504;8.248;2023-09-12T04:32:11;16.70;99.90
20777;DHT22;10548;47.504;8.248;2023-09-12T04:34:41;16.80;99.90
20777;DHT22;10548;47.504;8.248;2023-09-12T04:37:09;16.80;99.90
20777;DHT22;10548;47.504;8.248;2023-09-12T04:39:36;16.80;99.90
20777;DHT22;10548;47.504;8.248;2023-09-12T04:42:03;16.70;99.90
20777;DHT22;10548;47.504;8.248;2023-09-12T04:44:35;16.70;99.90
20777;DHT22;10548;47.504;8.248;2023-09-12T04:47:03;16.70;99.90
20777;DHT22;10548;47.504;8.248;2023-09-12T04:49:30;16.80;99.90
20777;DHT22;10548;47.504;8.248;2023-09-12T04:51:57;16.70;99.90
20777;DHT22;10548;47.504;8.248;2023-09-12T04:54:25;16.60;99.90
20777;DHT22;10548;47.504;8.248;2023-09-12T04:56:52;16.60;99.90
20777;DHT22;10548;47.504;8.248;2023-09-12T04:59:20;16.60;99.90
20777;DHT22;10548;47.504;8.248;2023-09-12T05:01:47;16.50;99.90
20777;DHT22;10548;47.504;8.248;2023-09-12T05:04:15;16.50;99.90
20777;DHT22;10548;47.504;8.248;2023-09-12T05:06:42;16.60;99.90
20777;DHT22;10548;47.504;8.248;2023-09-12T05:09:09;16.60;99.90
20777;DHT22;10548;47.504;8.248;2023-09-12T05:11:38;16.70;99.90
20777;DHT22;10548;47.504;8.248;2023-09-12T05:14:05;16.70;99.90
20777;DHT22;10548;47.504;8.248;2023-09-12T05:16:32;16.80;99.90
20777;DHT22;10548;47.504;8.248;2023-09-12T05:18:59;16.90;99.90
20777;DHT22;10548;47.504;8.248;2023-09-12T05:21:30;17.00;99.90
20777;DHT22;10548;47.504;8.248;2023-09-12T05:23:57;16.90;99.90
20777;DHT22;10548;47.504;8.248;2023-09-12T05:26:24;17.00;99.90
20777;DHT22;10548;47.504;8.248;2023-09-12T05:28:51;17.00;99.90
20777;DHT22;10548;47.504;8.248;2023-09-12T05:31:19;17.00;99.90
20777;DHT22;10548;47.504;8.248;2023-09-12T05:33:46;17.10;99.90
20777;DHT22;10548;47.504;8.248;2023-09-12T05:36:14;17.20;99.90
20777;DHT22;10548;47.504;8.248;2023-09-12T05:38:41;17.20;99.90
20777;DHT22;10548;47.504;8.248;2023-09-12T05:41:09;17.20;99.90
20777;DHT22;10548;47.504;8.248;2023-09-12T05:43:36;17.30;99.90
20777;DHT22;10548;47.504;8.248;2023-09-12T05:46:03;17.30;99.90
20777;DHT22;10548;47.504;8.248;2023-09-12T05:48:30;17.40;99.90
20777;DHT22;10548;47.504;8.248;2023-09-12T05:50:57;17.40;99.90
20777;DHT22;10548;47.504;8.248;2023-09-12T05:53:25;17.40;99.90
20777;DHT22;10548;47.504;8.248;2023-09-12T05:55:52;17.50;99.90
20777;DHT22;10548;47.504;8.248;2023-09-12T05:58:19;17.50;99.90
20777;DHT22;10548;47.504;8.248;2023-09-12T06:00:46;17.60;99.90
20777;DHT22;10548;47.504;8.248;2023-09-12T06:03:15;17.60;99.90
20777;DHT22;10548;47.504;8.248;2023-09-12T06:05:43;17.70;99.90
20777;DHT22;10548;47.504;8.248;2023-09-12T06:08:10;17.80;99.90
20777;DHT22;10548;47.504;8.248;2023-09-12T06:10:37;17.90;99.90
20777;DHT22;10548;47.504;8.248;2023-09-12T06:13:04;18.00;99.90
20777;DHT22;10548;47.504;8.248;2023-09-12T06:15:31;18.10;99.90
20777;DHT22;10548;47.504;8.248;2023-09-12T06:17:59;18.10;99.90
20777;DHT22;10548;47.504;8.248;2023-09-12T06:20:26;18.00;99.90
20777;DHT22;10548;47.504;8.248;2023-09-12T06:22:53;18.10;99.90
20777;DHT22;10548;47.504;8.248;2023-09-12T06:25:20;18.30;99.90
20777;DHT22;10548;47.504;8.248;2023-09-12T06:27:47;18.50;99.90
20777;DHT22;10548;47.504;8.248;2023-09-12T06:30:14;18.70;99.90
20777;DHT22;10548;47.504;8.248;2023-09-12T06:32:42;18.70;99.90
20777;DHT22;10548;47.504;8.248;2023-09-12T06:35:09;18.40;99.90
20777;DHT22;10548;47.504;8.248;2023-09-12T06:37:38;18.20;99.90
20777;DHT22;10548;47.504;8.248;2023-09-12T06:40:07;18.30;99.90
20777;DHT22;10548;47.504;8.248;2023-09-12T06:42:34;18.50;99.90
20777;DHT22;10548;47.504;8.248;2023-09-12T06:45:01;18.80;99.90
20777;DHT22;10548;47.504;8.248;2023-09-12T06:47:28;19.00;99.90
20777;DHT22;10548;47.504;8.248;2023-09-12T06:49:55;18.80;99.90
20777;DHT22;10548;47.504;8.248;2023-09-12T06:52:23;18.60;99.90
20777;DHT22;10548;47.504;8.248;2023-09-12T06:54:50;18.70;99.90
20777;DHT22;10548;47.504;8.248;2023-09-12T06:57:17;18.90;99.90
20777;DHT22;10548;47.504;8.248;2023-09-12T06:59:44;19.20;99.90
20777;DHT22;10548;47.504;8.248;2023-09-12T07:02:11;19.20;99.90
20777;DHT22;10548;47.504;8.248;2023-09-12T07:04:40;18.90;99.90
20777;DHT22;10548;47.504;8.248;2023-09-12T07:07:07;18.70;99.90
20777;DHT22;10548;47.504;8.248;2023-09-12T07:09:34;18.80;99.90
20777;DHT22;10548;47.504;8.248;2023-09-12T07:12:01;18.90;99.90
20777;DHT22;10548;47.504;8.248;2023-09-12T07:14:28;18.80;99.90
20777;DHT22;10548;47.504;8.248;2023-09-12T07:16:56;18.90;99.90
20777;DHT22;10548;47.504;8.248;2023-09-12T07:19:23;19.10;99.90
20777;DHT22;10548;47.504;8.248;2023-09-12T07:21:51;19.40;99.90
20777;DHT22;10548;47.504;8.248;2023-09-12T07:24:18;19.80;99.90
20777;DHT22;10548;47.504;8.248;2023-09-12T07:26:45;19.80;99.90
20777;DHT22;10548;47.504;8.248;2023-09-12T07:29:13;19.80;99.90
20777;DHT22;10548;47.504;8.248;2023-09-12T07:31:40;19.90;99.90
20777;DHT22;10548;47.504;8.248;2023-09-12T07:34:08;20.00;99.90
20777;DHT22;10548;47.504;8.248;2023-09-12T07:36:35;20.40;99.90
20777;DHT22;10548;47.504;8.248;2023-09-12T07:39:03;20.40;99.90
20777;DHT22;10548;47.504;8.248;2023-09-12T07:41:31;20.50;99.90
20777;DHT22;10548;47.504;8.248;2023-09-12T07:43:58;20.60;99.90
20777;DHT22;10548;47.504;8.248;2023-09-12T07:46:26;20.50;99.90
20777;DHT22;10548;47.504;8.248;2023-09-12T07:48:53;20.50;99.90
20777;DHT22;10548;47.504;8.248;2023-09-12T07:51:21;20.60;99.90
20777;DHT22;10548;47.504;8.248;2023-09-12T07:53:49;20.70;99.90
20777;DHT22;10548;47.504;8.248;2023-09-12T07:56:17;20.70;99.90
20777;DHT22;10548;47.504;8.248;2023-09-12T07:58:44;20.50;99.90
20777;DHT22;10548;47.504;8.248;2023-09-12T08:01:11;20.50;99.90
20777;DHT22;10548;47.504;8.248;2023-09-12T08:03:39;20.60;99.90
20777;DHT22;10548;47.504;8.248;2023-09-12T08:06:07;20.70;99.90
20777;DHT22;10548;47.504;8.248;2023-09-12T08:08:34;21.00;99.90
20777;DHT22;10548;47.504;8.248;2023-09-12T08:11:02;20.90;99.90
20777;DHT22;10548;47.504;8.248;2023-09-12T08:13:29;21.30;99.90
20777;DHT22;10548;47.504;8.248;2023-09-12T08:15:57;21.40;99.90
20777;DHT22;10548;47.504;8.248;2023-09-12T08:18:29;21.40;99.90
20777;DHT22;10548;47.504;8.248;2023-09-12T08:20:58;21.10;99.90
20777;DHT22;10548;47.504;8.248;2023-09-12T08:23:25;21.00;99.90
20777;DHT22;10548;47.504;8.248;2023-09-12T08:25:52;21.20;99.90
20777;DHT22;10548;47.504;8.248;2023-09-12T08:28:19;21.50;99.90
20777;DHT22;10548;47.504;8.248;2023-09-12T08:30:46;21.80;99.90
20777;DHT22;10548;47.504;8.248;2023-09-12T08:33:14;21.90;99.90
20777;DHT22;10548;47.504;8.248;2023-09-12T08:35:41;22.10;99.90
20777;DHT22;10548;47.504;8.248;2023-09-12T08:38:08;22.20;99.90
20777;DHT22;10548;47.504;8.248;2023-09-12T08:40:36;22.80;99.90
20777;DHT22;10548;47.504;8.248;2023-09-12T08:43:03;22.90;99.90
20777;DHT22;10548;47.504;8.248;2023-09-12T08:45:31;23.40;99.90
20777;DHT22;10548;47.504;8.248;2023-09-12T08:48:01;23.10;99.90
20777;DHT22;10548;47.504;8.248;2023-09-12T08:50:30;23.40;99.90
20777;DHT22;10548;47.504;8.248;2023-09-12T08:53:00;23.60;99.90
20777;DHT22;10548;47.504;8.248;2023-09-12T08:55:35;23.20;99.90
20777;DHT22;10548;47.504;8.248;2023-09-12T08:58:04;23.50;99.90
20777;DHT22;10548;47.504;8.248;2023-09-12T09:00:32;24.10;99.90
20777;DHT22;10548;47.504;8.248;2023-09-12T09:03:00;25.00;99.90
20777;DHT22;10548;47.504;8.248;2023-09-12T09:05:28;25.00;99.90
20777;DHT22;10548;47.504;8.248;2023-09-12T09:07:57;25.30;99.90
20777;DHT22;10548;47.504;8.248;2023-09-12T09:10:25;25.20;99.20
20777;DHT22;10548;47.504;8.248;2023-09-12T09:13:14;24.60;99.90
20777;DHT22;10548;47.504;8.248;2023-09-12T09:15:44;24.40;99.90
20777;DHT22;10548;47.504;8.248;2023-09-12T09:18:15;24.70;99.90
20777;DHT22;10548;47.504;8.248;2023-09-12T09:20:43;25.10;99.90
20777;DHT22;10548;47.504;8.248;2023-09-12T09:23:15;25.30;98.70
20777;DHT22;10548;47.504;8.248;2023-09-12T09:25:51;25.20;98.30
20777;DHT22;10548;47.504;8.248;2023-09-12T09:28:20;24.80;99.00
20777;DHT22;10548;47.504;8.248;2023-09-12T09:30:49;24.30;99.90
20777;DHT22;10548;47.504;8.248;2023-09-12T09:33:22;24.30;99.90
20777;DHT22;10548;47.504;8.248;2023-09-12T09:35:49;25.20;99.90
20777;DHT22;10548;47.504;8.248;2023-09-12T09:38:19;25.50;98.80
20777;DHT22;10548;47.504;8.248;2023-09-12T09:40:48;25.20;98.30
20777;DHT22;10548;47.504;8.248;2023-09-12T09:43:22;25.70;97.70
20777;DHT22;10548;47.504;8.248;2023-09-12T09:45:52;25.10;98.10
20777;DHT22;10548;47.504;8.248;2023-09-12T09:48:21;25.70;96.30
20777;DHT22;10548;47.504;8.248;2023-09-12T09:50:48;25.60;95.90
20777;DHT22;10548;47.504;8.248;2023-09-12T09:53:16;25.30;97.70
20777;DHT22;10548;47.504;8.248;2023-09-12T09:55:43;25.80;96.20
20777;DHT22;10548;47.504;8.248;2023-09-12T09:58:15;26.10;95.60
20777;DHT22;10548;47.504;8.248;2023-09-12T10:00:46;26.60;93.60
20777;DHT22;10548;47.504;8.248;2023-09-12T10:03:18;27.30;90.10
20777;DHT22;10548;47.504;8.248;2023-09-12T10:05:46;27.20;91.10
20777;DHT22;10548;47.504;8.248;2023-09-12T10:08:16;28.00;89.20
20777;DHT22;10548;47.504;8.248;2023-09-12T10:10:45;27.70;86.40
20777;DHT22;10548;47.504;8.248;2023-09-12T10:13:13;28.70;83.90
20777;DHT22;10548;47.504;8.248;2023-09-12T10:15:42;28.40;76.80
20777;DHT22;10548;47.504;8.248;2023-09-12T10:18:15;28.10;83.50
20777;DHT22;10548;47.504;8.248;2023-09-12T10:21:01;29.10;74.70
20777;DHT22;10548;47.504;8.248;2023-09-12T10:23:50;28.60;75.20
20777;DHT22;10548;47.504;8.248;2023-09-12T10:26:18;29.00;75.60
20777;DHT22;10548;47.504;8.248;2023-09-12T10:28:48;28.60;72.30
20777;DHT22;10548;47.504;8.248;2023-09-12T10:31:17;27.60;78.30
20777;DHT22;10548;47.504;8.248;2023-09-12T10:33:44;27.00;84.40
20777;DHT22;10548;47.504;8.248;2023-09-12T10:36:14;27.00;85.10
20777;DHT22;10548;47.504;8.248;2023-09-12T10:38:47;27.50;77.60
20777;DHT22;10548;47.504;8.248;2023-09-12T10:41:15;27.90;75.40
20777;DHT22;10548;47.504;8.248;2023-09-12T10:43:44;28.70;71.90
20777;DHT22;10548;47.504;8.248;2023-09-12T10:46:17;28.50;67.60
20777;DHT22;10548;47.504;8.248;2023-09-12T10:48:45;29.10;71.00
20777;DHT22;10548;47.504;8.248;2023-09-12T10:51:13;28.90;76.10
20777;DHT22;10548;47.504;8.248;2023-09-12T10:53:45;28.80;74.40
20777;DHT22;10548;47.504;8.248;2023-09-12T10:56:20;29.00;63.40
20777;DHT22;10548;47.504;8.248;2023-09-12T10:59:23;29.70;62.30
20777;DHT22;10548;47.504;8.248;2023-09-12T11:01:52;30.00;58.20
20777;DHT22;10548;47.504;8.248;2023-09-12T11:04:40;30.00;55.90
20777;DHT22;10548;47.504;8.248;2023-09-12T11:07:33;29.60;54.60
20777;DHT22;10548;47.504;8.248;2023-09-12T11:10:19;30.10;56.90
20777;DHT22;10548;47.504;8.248;2023-09-12T11:12:49;30.10;54.10
20777;DHT22;10548;47.504;8.248;2023-09-12T11:15:19;29.20;52.70
20777;DHT22;10548;47.504;8.248;2023-09-12T11:17:48;30.20;53.00
20777;DHT22;10548;47.504;8.248;2023-09-12T11:20:17;30.40;51.20
20777;DHT22;10548;47.504;8.248;2023-09-12T11:22:47;31.40;47.60
20777;DHT22;10548;47.504;8.248;2023-09-12T11:25:21;30.70;50.00
20777;DHT22;10548;47.504;8.248;2023-09-12T11:28:04;30.90;46.10
20777;DHT22;10548;47.504;8.248;2023-09-12T11:30:32;30.80;45.70
20777;DHT22;10548;47.504;8.248;2023-09-12T11:33:02;31.80;45.80
20777;DHT22;10548;47.504;8.248;2023-09-12T11:35:30;31.70;42.30
20777;DHT22;10548;47.504;8.248;2023-09-12T11:38:02;33.30;41.70
20777;DHT22;10548;47.504;8.248;2023-09-12T11:40:48;32.70;43.90
20777;DHT22;10548;47.504;8.248;2023-09-12T11:43:26;30.80;39.10
20777;DHT22;10548;47.504;8.248;2023-09-12T11:45:55;30.60;40.70
20777;DHT22;10548;47.504;8.248;2023-09-12T11:48:23;31.50;38.40
20777;DHT22;10548;47.504;8.248;2023-09-12T11:50:55;32.30;38.00
20777;DHT22;10548;47.504;8.248;2023-09-12T11:53:24;32.10;40.40
20777;DHT22;10548;47.504;8.248;2023-09-12T11:56:02;31.10;41.90
20777;DHT22;10548;47.504;8.248;2023-09-12T11:58:29;31.70;40.20
20777;DHT22;10548;47.504;8.248;2023-09-12T12:00:58;30.90;40.00
20777;DHT22;10548;47.504;8.248;2023-09-12T12:03:27;30.70;42.70
20777;DHT22;10548;47.504;8.248;2023-09-12T12:05:55;30.70;40.90
20777;DHT22;10548;47.504;8.248;2023-09-12T12:08:24;30.40;43.80
20777;DHT22;10548;47.504;8.248;2023-09-12T12:10:54;30.70;44.20
20777;DHT22;10548;47.504;8.248;2023-09-12T12:13:22;31.50;43.40
20777;DHT22;10548;47.504;8.248;2023-09-12T12:15:50;31.70;44.90
20777;DHT22;10548;47.504;8.248;2023-09-12T12:18:18;32.30;40.60
20777;DHT22;10548;47.504;8.248;2023-09-12T12:20:46;30.80;41.20
20777;DHT22;10548;47.504;8.248;2023-09-12T12:23:13;32.80;36.90
20777;DHT22;10548;47.504;8.248;2023-09-12T12:25:40;33.80;35.30
20777;DHT22;10548;47.504;8.248;2023-09-12T12:28:07;34.00;34.30
20777;DHT22;10548;47.504;8.248;2023-09-12T12:30:36;34.30;34.80
20777;DHT22;10548;47.504;8.248;2023-09-12T12:33:08;32.50;37.30
20777;DHT22;10548;47.504;8.248;2023-09-12T12:36:03;33.50;36.30
20777;DHT22;10548;47.504;8.248;2023-09-12T12:38:34;33.20;37.00
20777;DHT22;10548;47.504;8.248;2023-09-12T12:41:05;33.50;34.60
20777;DHT22;10548;47.504;8.248;2023-09-12T12:43:32;32.40;35.00
20777;DHT22;10548;47.504;8.248;2023-09-12T12:46:00;32.40;38.20
20777;DHT22;10548;47.504;8.248;2023-09-12T12:48:35;33.30;34.10
20777;DHT22;10548;47.504;8.248;2023-09-12T12:51:18;33.40;34.30
20777;DHT22;10548;47.504;8.248;2023-09-12T12:53:47;33.90;32.90
20777;DHT22;10548;47.504;8.248;2023-09-12T12:56:26;33.60;33.10
20777;DHT22;10548;47.504;8.248;2023-09-12T12:58:58;32.30;35.80
20777;DHT22;10548;47.504;8.248;2023-09-12T13:01:27;31.00;38.00
20777;DHT22;10548;47.504;8.248;2023-09-12T13:03:54;31.70;37.50
20777;DHT22;10548;47.504;8.248;2023-09-12T13:06:23;32.40;37.10
20777;DHT22;10548;47.504;8.248;2023-09-12T13:08:52;31.80;37.00
20777;DHT22;10548;47.504;8.248;2023-09-12T13:11:20;31.80;38.70
20777;DHT22;10548;47.504;8.248;2023-09-12T13:13:48;32.10;36.30
20777;DHT22;10548;47.504;8.248;2023-09-12T13:16:18;32.10;34.90
20777;DHT22;10548;47.504;8.248;2023-09-12T13:18:46;31.80;36.60
20777;DHT22;10548;47.504;8.248;2023-09-12T13:21:13;31.10;42.70
20777;DHT22;10548;47.504;8.248;2023-09-12T13:23:40;31.40;38.80
20777;DHT22;10548;47.504;8.248;2023-09-12T13:26:08;31.80;37.80
20777;DHT22;10548;47.504;8.248;2023-09-12T13:28:36;31.40;42.70
20777;DHT22;10548;47.504;8.248;2023-09-12T13:31:04;30.90;41.60
20777;DHT22;10548;47.504;8.248;2023-09-12T13:33:31;30.60;44.00
20777;DHT22;10548;47.504;8.248;2023-09-12T13:35:59;30.50;41.50
20777;DHT22;10548;47.504;8.248;2023-09-12T13:38:26;30.50;44.30
20777;DHT22;10548;47.504;8.248;2023-09-12T13:40:53;30.00;40.90
20777;DHT22;10548;47.504;8.248;2023-09-12T13:43:20;30.30;41.20
20777;DHT22;10548;47.504;8.248;2023-09-12T13:45:48;30.50;40.70
20777;DHT22;10548;47.504;8.248;2023-09-12T13:48:15;30.50;40.70
20777;DHT22;10548;47.504;8.248;2023-09-12T13:50:42;30.20;42.30
20777;DHT22;10548;47.504;8.248;2023-09-12T13:53:10;30.10;40.90
20777;DHT22;10548;47.504;8.248;2023-09-12T13:55:37;30.30;41.50
20777;DHT22;10548;47.504;8.248;2023-09-12T13:58:05;30.30;42.10
20777;DHT22;10548;47.504;8.248;2023-09-12T14:00:34;30.20;42.30
20777;DHT22;10548;47.504;8.248;2023-09-12T14:03:04;30.10;43.90
20777;DHT22;10548;47.504;8.248;2023-09-12T14:05:32;30.00;42.90
20777;DHT22;10548;47.504;8.248;2023-09-12T14:08:00;30.00;43.20
20777;DHT22;10548;47.504;8.248;2023-09-12T14:10:27;30.00;43.20
20777;DHT22;10548;47.504;8.248;2023-09-12T14:13:03;29.50;43.60
20777;DHT22;10548;47.504;8.248;2023-09-12T14:15:34;30.00;44.90
20777;DHT22;10548;47.504;8.248;2023-09-12T14:18:02;30.20;43.90
20777;DHT22;10548;47.504;8.248;2023-09-12T14:20:29;30.60;42.90
20777;DHT22;10548;47.504;8.248;2023-09-12T14:22:57;30.70;42.20
20777;DHT22;10548;47.504;8.248;2023-09-12T14:25:25;30.30;43.40
20777;DHT22;10548;47.504;8.248;2023-09-12T14:27:53;29.60;44.00
20777;DHT22;10548;47.504;8.248;2023-09-12T14:30:20;29.60;44.00
20777;DHT22;10548;47.504;8.248;2023-09-12T14:32:49;30.10;44.30
20777;DHT22;10548;47.504;8.248;2023-09-12T14:35:16;30.40;45.10
20777;DHT22;10548;47.504;8.248;2023-09-12T14:37:43;30.90;45.40
20777;DHT22;10548;47.504;8.248;2023-09-12T14:40:12;30.70;42.80
20777;DHT22;10548;47.504;8.248;2023-09-12T14:42:41;30.50;42.60
20777;DHT22;10548;47.504;8.248;2023-09-12T14:45:09;31.10;40.20
20777;DHT22;10548;47.504;8.248;2023-09-12T14:47:37;32.20;38.80
20777;DHT22;10548;47.504;8.248;2023-09-12T14:50:04;31.50;39.10
20777;DHT22;10548;47.504;8.248;2023-09-12T14:52:32;31.40;39.80
20777;DHT22;10548;47.504;8.248;2023-09-12T14:55:01;31.70;41.10
20777;DHT22;10548;47.504;8.248;2023-09-12T14:57:29;31.30;43.10
20777;DHT22;10548;47.504;8.248;2023-09-12T14:59:57;30.80;45.40
20777;DHT22;10548;47.504;8.248;2023-09-12T15:02:25;31.90;44.20
20777;DHT22;10548;47.504;8.248;2023-09-12T15:04:59;31.80;41.80
20777;DHT22;10548;47.504;8.248;2023-09-12T15:07:30;31.30;40.40
20777;DHT22;10548;47.504;8.248;2023-09-12T15:09:57;30.80;37.50
20777;DHT22;10548;47.504;8.248;2023-09-12T15:12:25;30.70;39.00
20777;DHT22;10548;47.504;8.248;2023-09-12T15:14:53;30.70;37.40
20777;DHT22;10548;47.504;8.248;2023-09-12T15:17:20;30.70;38.20
20777;DHT22;10548;47.504;8.248;2023-09-12T15:19:47;30.80;36.00
20777;DHT22;10548;47.504;8.248;2023-09-12T15:22:14;31.10;35.30
20777;DHT22;10548;47.504;8.248;2023-09-12T15:24:42;31.10;34.60
20777;DHT22;10548;47.504;8.248;2023-09-12T15:27:09;31.10;33.90
20777;DHT22;10548;47.504;8.248;2023-09-12T15:29:36;31.40;32.60
20777;DHT22;10548;47.504;8.248;2023-09-12T15:32:04;31.10;32.10
20777;DHT22;10548;47.504;8.248;2023-09-12T15:34:32;31.30;31.70
20777;DHT22;10548;47.504;8.248;2023-09-12T15:37:11;30.30;31.10
20777;DHT22;10548;47.504;8.248;2023-09-12T15:39:41;30.60;33.50
20777;DHT22;10548;47.504;8.248;2023-09-12T15:42:09;30.00;33.00
20777;DHT22;10548;47.504;8.248;2023-09-12T15:44:53;30.90;34.00